createdAt,value
2023-12-11T00:02:17.422Z,19.23
2023-12-11T00:04:47.124Z,24.17
2023-12-11T00:07:15.531Z,19.03
2023-12-11T00:09:43.878Z,17.93
2023-12-11T00:12:12.156Z,21.27
2023-12-11T00:14:43.662Z,21.17
2023-12-11T00:17:12.010Z,18.90
2023-12-11T00:19:40.506Z,20.90
2023-12-11T00:22:10.701Z,23.63
2023-12-11T00:24:39.144Z,16.83
2023-12-11T00:27:07.802Z,22.20
2023-12-11T00:29:37.361Z,19.63
2023-12-11T00:32:06.161Z,16.33
2023-12-11T00:34:35.088Z,22.13
2023-12-11T00:37:03.755Z,17.13
2023-12-11T00:39:33.615Z,21.73
2023-12-11T00:42:01.945Z,20.20
2023-12-11T00:44:30.408Z,20.73
2023-12-11T00:46:58.736Z,17.27
2023-12-11T00:49:27.130Z,22.43
2023-12-11T00:51:55.509Z,17.97
2023-12-11T00:54:23.862Z,19.33
2023-12-11T00:56:53.649Z,26.03
2023-12-11T00:59:22.036Z,24.07
2023-12-11T01:01:50.899Z,22.93
2023-12-11T01:04:19.409Z,27.13
2023-12-11T01:06:47.821Z,23.67
2023-12-11T01:09:16.221Z,25.87
2023-12-11T01:11:44.506Z,28.70
2023-12-11T01:14:15.524Z,28.43
2023-12-11T01:16:43.858Z,24.47
2023-12-11T01:19:12.402Z,27.73
2023-12-11T01:21:40.812Z,26.10
2023-12-11T01:24:09.137Z,26.73
2023-12-11T01:26:37.690Z,23.27
2023-12-11T01:29:06.011Z,22.80
2023-12-11T01:31:35.709Z,28.50
2023-12-11T01:34:04.150Z,21.63
2023-12-11T01:36:32.606Z,25.17
2023-12-11T01:39:00.926Z,32.77
2023-12-11T01:41:29.231Z,28.37
2023-12-11T01:43:58.653Z,20.47
2023-12-11T01:46:27.443Z,28.53
2023-12-11T01:48:57.326Z,28.53
2023-12-11T01:51:26.190Z,31.33
2023-12-11T01:53:54.608Z,27.33
2023-12-11T01:56:23.574Z,33.93
2023-12-11T01:58:53.478Z,27.70
2023-12-11T02:01:24.660Z,28.80
2023-12-11T02:03:53.478Z,23.87
2023-12-11T02:06:23.309Z,24.57
2023-12-11T02:08:51.719Z,27.30
2023-12-11T02:11:20.234Z,26.93
2023-12-11T02:13:48.594Z,25.17
2023-12-11T02:16:17.923Z,24.13
2023-12-11T02:18:46.552Z,31.20
2023-12-11T02:21:15.103Z,25.87
2023-12-11T02:23:53.400Z,27.07
2023-12-11T02:26:24.349Z,30.87
2023-12-11T02:28:52.737Z,28.87
2023-12-11T02:31:21.082Z,28.13
2023-12-11T02:33:49.479Z,32.33
2023-12-11T02:36:17.806Z,30.93
2023-12-11T02:38:46.142Z,25.97
2023-12-11T02:41:14.508Z,31.57
2023-12-11T02:43:44.289Z,26.10
2023-12-11T02:46:12.775Z,35.93
2023-12-11T02:48:41.483Z,32.67
2023-12-11T02:51:10.092Z,38.53
2023-12-11T02:53:38.424Z,30.07
2023-12-11T02:56:07.303Z,27.53
2023-12-11T02:58:35.640Z,21.87
2023-12-11T03:01:05.635Z,32.43
2023-12-11T03:03:34.249Z,25.63
2023-12-11T03:06:05.102Z,31.03
2023-12-11T03:08:33.444Z,29.17
2023-12-11T03:11:01.858Z,32.33
2023-12-11T03:13:30.206Z,27.47
2023-12-11T03:15:58.581Z,36.67
2023-12-11T03:18:28.369Z,23.30
2023-12-11T03:20:56.863Z,26.83
2023-12-11T03:23:25.237Z,27.37
2023-12-11T03:25:53.601Z,29.17
2023-12-11T03:28:22.263Z,24.97
2023-12-11T03:30:50.687Z,28.87
2023-12-11T03:33:19.041Z,29.10
2023-12-11T03:35:49.705Z,22.23
2023-12-11T03:38:17.981Z,28.90
2023-12-11T03:40:46.424Z,26.23
2023-12-11T03:43:14.825Z,22.13
2023-12-11T03:45:43.290Z,29.90
2023-12-11T03:48:11.738Z,33.03
2023-12-11T03:50:40.236Z,27.60
2023-12-11T03:53:11.370Z,28.10
2023-12-11T03:55:39.728Z,24.70
2023-12-11T03:58:08.939Z,26.60
2023-12-11T04:00:37.621Z,25.17
2023-12-11T04:03:06.101Z,31.10
2023-12-11T04:05:34.606Z,33.53
2023-12-11T04:08:02.896Z,26.37
2023-12-11T04:10:32.628Z,23.63
2023-12-11T04:13:03.738Z,29.50
2023-12-11T04:15:32.236Z,21.23
2023-12-11T04:18:00.551Z,21.63
2023-12-11T04:20:28.916Z,20.23
2023-12-11T04:22:57.286Z,20.97
2023-12-11T04:25:26.012Z,28.13
2023-12-11T04:27:55.881Z,33.67
2023-12-11T04:30:24.207Z,28.63
2023-12-11T04:32:52.622Z,23.80
2023-12-11T04:35:21.439Z,26.20
2023-12-11T04:37:49.783Z,24.30
2023-12-11T04:40:18.172Z,22.77
2023-12-11T04:42:46.636Z,24.90
2023-12-11T04:45:16.406Z,23.07
2023-12-11T04:47:44.902Z,27.57
2023-12-11T04:50:13.273Z,25.50
2023-12-11T04:52:41.807Z,28.87
2023-12-11T04:55:11.232Z,27.87
2023-12-11T04:57:39.805Z,20.87
2023-12-11T05:00:08.692Z,18.50
2023-12-11T05:02:38.419Z,19.47
2023-12-11T05:05:07.386Z,16.57
2023-12-11T05:07:35.781Z,15.27
2023-12-11T05:10:04.191Z,14.70
2023-12-11T05:12:32.824Z,14.90
2023-12-11T05:15:03.622Z,10.03
2023-12-11T05:17:32.319Z,10.37
2023-12-11T05:20:02.171Z,12.43
2023-12-11T05:22:30.661Z,10.80
2023-12-11T05:24:58.985Z,10.97
2023-12-11T05:27:27.930Z,6.83
2023-12-11T05:29:56.290Z,11.87
2023-12-11T05:32:24.747Z,11.67
2023-12-11T05:34:53.420Z,8.23
2023-12-11T05:37:23.190Z,12.80
2023-12-11T05:39:58.015Z,15.93
2023-12-11T05:42:41.511Z,11.63
2023-12-11T05:45:10.672Z,15.87
2023-12-11T05:47:39.070Z,18.70
2023-12-11T05:50:07.930Z,22.07
2023-12-11T05:52:37.716Z,16.27
2023-12-11T05:55:06.454Z,12.57
2023-12-11T05:57:34.941Z,8.97
2023-12-11T06:00:09.448Z,14.80
2023-12-11T06:02:37.889Z,16.07
2023-12-11T06:05:06.606Z,12.97
2023-12-11T06:07:35.007Z,13.23
2023-12-11T06:10:04.990Z,15.57
2023-12-11T06:12:33.393Z,13.17
2023-12-11T06:15:01.732Z,12.03
2023-12-11T06:17:30.437Z,14.03
2023-12-11T06:20:01.576Z,15.57
2023-12-11T06:22:30.043Z,13.50
2023-12-11T06:24:58.417Z,11.67
2023-12-11T06:27:29.542Z,12.83
2023-12-11T06:29:58.004Z,16.60
2023-12-11T06:32:26.477Z,11.77
2023-12-11T06:34:54.918Z,13.27
2023-12-11T06:37:23.898Z,11.07
2023-12-11T06:39:52.469Z,13.47
2023-12-11T06:42:20.821Z,12.90
2023-12-11T06:44:50.962Z,14.27
2023-12-11T06:47:19.755Z,13.93
2023-12-11T06:49:48.559Z,15.13
2023-12-11T06:52:17.350Z,19.33
2023-12-11T06:54:45.938Z,22.17
2023-12-11T06:57:14.344Z,17.30
2023-12-11T06:59:42.859Z,21.90
2023-12-11T07:02:12.982Z,21.50
2023-12-11T07:04:43.438Z,19.90
2023-12-11T07:07:11.984Z,29.60
2023-12-11T07:09:40.516Z,18.93
2023-12-11T07:12:09.300Z,19.00
2023-12-11T07:14:41.051Z,21.27
2023-12-11T07:17:09.391Z,25.60
2023-12-11T07:19:40.272Z,20.23
2023-12-11T07:22:08.658Z,17.03
2023-12-11T07:24:38.114Z,18.13
2023-12-11T07:27:06.695Z,18.00
2023-12-11T07:29:36.194Z,17.97
2023-12-11T07:32:06.929Z,21.77
2023-12-11T07:34:35.354Z,19.60
2023-12-11T07:37:07.077Z,18.60
2023-12-11T07:39:35.518Z,17.07
2023-12-11T07:42:03.994Z,23.60
2023-12-11T07:44:32.386Z,20.40
2023-12-11T07:47:01.161Z,20.93
2023-12-11T07:49:29.595Z,18.30
2023-12-11T07:51:58.082Z,14.67
2023-12-11T07:54:28.117Z,20.80
2023-12-11T07:56:56.764Z,21.87
2023-12-11T07:59:25.127Z,20.17
2023-12-11T08:01:54.262Z,15.33
2023-12-11T08:04:22.669Z,20.00
2023-12-11T08:06:52.076Z,15.07
2023-12-11T08:09:21.780Z,14.37
2023-12-11T08:11:51.763Z,18.30
2023-12-11T08:14:20.119Z,16.50
2023-12-11T08:16:48.551Z,14.77
2023-12-11T08:19:16.915Z,16.60
2023-12-11T08:21:45.298Z,15.03
2023-12-11T08:24:13.758Z,14.63
2023-12-11T08:26:42.053Z,13.83
2023-12-11T08:29:11.908Z,14.67
2023-12-11T08:31:40.218Z,12.20
2023-12-11T08:34:08.824Z,11.90
2023-12-11T08:36:37.183Z,10.10
2023-12-11T08:39:09.950Z,13.40
2023-12-11T08:41:38.258Z,11.17
2023-12-11T08:44:07.040Z,11.77
2023-12-11T08:46:36.735Z,10.70
2023-12-11T08:49:05.425Z,11.83
2023-12-11T08:51:36.472Z,11.20
2023-12-11T08:54:04.923Z,6.03
2023-12-11T08:56:33.463Z,9.47
2023-12-11T08:59:02.076Z,10.73
2023-12-11T09:01:32.189Z,9.43
2023-12-11T09:04:02.024Z,10.77
2023-12-11T09:06:30.481Z,12.20
2023-12-11T09:08:59.135Z,10.20
2023-12-11T09:11:28.472Z,9.27
2023-12-11T09:13:56.799Z,9.07
2023-12-11T09:16:25.262Z,7.73
2023-12-11T09:18:53.696Z,8.67
2023-12-11T09:21:24.999Z,10.07
2023-12-11T09:23:53.318Z,8.17
2023-12-11T09:26:21.776Z,7.17
2023-12-11T09:28:52.236Z,8.57
2023-12-11T09:31:21.533Z,6.33
2023-12-11T09:33:52.200Z,7.63
2023-12-11T09:36:21.081Z,7.83
2023-12-11T09:38:50.780Z,10.53
2023-12-11T09:41:20.300Z,8.50
2023-12-11T09:43:49.766Z,9.57
2023-12-11T09:46:20.283Z,7.90
2023-12-11T09:48:53.103Z,8.93
2023-12-11T09:51:21.616Z,9.30
2023-12-11T09:53:51.672Z,12.13
2023-12-11T09:56:20.034Z,8.93
2023-12-11T09:58:49.006Z,10.90
2023-12-11T10:01:17.758Z,10.93
2023-12-11T10:03:46.258Z,7.33
2023-12-11T10:06:16.234Z,7.27
2023-12-11T10:08:48.398Z,7.27
2023-12-11T10:11:20.394Z,7.63
2023-12-11T10:13:51.130Z,7.97
2023-12-11T10:16:29.672Z,7.83
2023-12-11T10:18:58.293Z,7.93
2023-12-11T10:21:26.834Z,7.63
2023-12-11T10:24:05.297Z,8.23
2023-12-11T10:26:35.867Z,6.43
2023-12-11T10:29:24.583Z,11.10
2023-12-11T10:31:53.268Z,7.60
2023-12-11T10:34:21.769Z,10.17
2023-12-11T10:36:51.996Z,4.57
2023-12-11T10:39:21.772Z,9.87
2023-12-11T10:41:52.301Z,5.17
2023-12-11T10:44:39.695Z,8.57
2023-12-11T10:47:15.772Z,9.10
2023-12-11T10:49:44.956Z,7.00
2023-12-11T10:52:13.621Z,8.37
2023-12-11T10:54:43.340Z,11.47
2023-12-11T10:57:16.554Z,7.07
2023-12-11T10:59:46.344Z,7.17
2023-12-11T11:02:15.895Z,9.53
2023-12-11T11:04:45.640Z,7.90
2023-12-11T11:07:17.650Z,5.63
2023-12-11T11:09:55.012Z,5.83
2023-12-11T11:12:32.894Z,5.80
2023-12-11T11:15:01.184Z,5.20
2023-12-11T11:17:54.128Z,4.83
2023-12-11T11:20:23.914Z,3.53
2023-12-11T11:22:52.573Z,5.57
2023-12-11T11:25:33.254Z,6.77
2023-12-11T11:28:03.797Z,7.07
2023-12-11T11:30:53.743Z,4.67
2023-12-11T11:33:23.553Z,5.10
2023-12-11T11:35:53.431Z,5.77
2023-12-11T11:38:22.234Z,8.97
2023-12-11T11:40:52.708Z,8.23
2023-12-11T11:43:22.709Z,7.10
2023-12-11T11:45:57.497Z,4.37
2023-12-11T11:48:40.801Z,7.90
2023-12-11T11:51:09.325Z,5.90
2023-12-11T11:53:37.688Z,8.70
2023-12-11T11:56:06.421Z,5.67
2023-12-11T11:58:36.257Z,12.57
2023-12-11T12:01:06.140Z,12.13
2023-12-11T12:03:41.700Z,10.13
2023-12-11T12:06:10.498Z,9.43
2023-12-11T12:08:39.008Z,9.70
2023-12-11T12:11:07.696Z,7.70
2023-12-11T12:13:38.313Z,8.67
2023-12-11T12:16:07.336Z,7.03
2023-12-11T12:18:36.335Z,10.57
2023-12-11T12:21:05.749Z,11.07
2023-12-11T12:23:34.528Z,9.97
2023-12-11T12:26:04.220Z,10.37
2023-12-11T12:28:32.783Z,11.03
2023-12-11T12:31:02.418Z,11.30
2023-12-11T12:33:30.999Z,12.80
2023-12-11T12:35:59.675Z,11.87
2023-12-11T12:38:28.203Z,9.97
2023-12-11T12:40:59.897Z,11.67
2023-12-11T12:43:28.362Z,11.10
2023-12-11T12:46:02.926Z,7.60
2023-12-11T12:48:31.632Z,11.83
2023-12-11T12:51:06.860Z,7.10
2023-12-11T12:53:35.223Z,12.00
2023-12-11T12:56:05.313Z,15.70
2023-12-11T12:58:33.650Z,7.93
2023-12-11T13:01:04.837Z,10.87
2023-12-11T13:03:33.365Z,9.97
2023-12-11T13:06:01.768Z,9.20
2023-12-11T13:08:30.173Z,7.20
2023-12-11T13:10:59.009Z,9.67
2023-12-11T13:13:28.635Z,9.60
2023-12-11T13:15:57.769Z,9.27
2023-12-11T13:18:31.773Z,10.37
2023-12-11T13:21:00.271Z,8.80
2023-12-11T13:23:28.727Z,9.37
2023-12-11T13:25:57.057Z,9.83
2023-12-11T13:28:25.828Z,8.60
2023-12-11T13:30:54.100Z,7.87
2023-12-11T13:33:24.807Z,5.90
2023-12-11T13:35:54.385Z,6.60
2023-12-11T13:38:22.640Z,8.57
2023-12-11T13:40:50.997Z,7.17
2023-12-11T13:43:19.301Z,8.37
2023-12-11T13:45:47.775Z,11.03
2023-12-11T13:48:16.415Z,8.80
2023-12-11T13:50:44.845Z,7.20
2023-12-11T13:53:14.611Z,10.10
2023-12-11T13:55:43.343Z,11.40
2023-12-11T13:58:11.693Z,9.13
2023-12-11T14:00:40.131Z,8.90
2023-12-11T14:03:08.687Z,8.93
2023-12-11T14:05:38.221Z,7.60
2023-12-11T14:08:07.118Z,12.37
2023-12-11T14:10:36.731Z,8.27
2023-12-11T14:13:06.017Z,7.77
2023-12-11T14:15:34.367Z,5.50
2023-12-11T14:18:04.349Z,8.50
2023-12-11T14:20:32.850Z,4.53
2023-12-11T14:23:01.707Z,4.87
2023-12-11T14:25:30.144Z,6.57
2023-12-11T14:28:04.993Z,6.60
2023-12-11T14:30:37.247Z,7.37
2023-12-11T14:33:06.824Z,3.83
2023-12-11T14:35:36.950Z,5.50
2023-12-11T14:38:05.858Z,8.30
2023-12-11T14:40:34.621Z,6.87
2023-12-11T14:43:04.295Z,7.50
2023-12-11T14:45:34.566Z,3.33
2023-12-11T14:48:02.930Z,4.57
2023-12-11T14:50:31.246Z,6.03
2023-12-11T14:52:59.515Z,3.17
2023-12-11T14:55:29.015Z,3.80
2023-12-11T14:57:58.679Z,3.70
2023-12-11T15:00:28.348Z,6.83
2023-12-11T15:02:56.762Z,7.60
2023-12-11T15:05:25.697Z,6.60
2023-12-11T15:07:53.966Z,4.73
2023-12-11T15:10:24.524Z,9.60
2023-12-11T15:12:52.852Z,6.23
2023-12-11T15:15:21.467Z,6.73
2023-12-11T15:17:51.478Z,4.90
2023-12-11T15:20:21.507Z,6.43
2023-12-11T15:22:49.897Z,7.10
2023-12-11T15:25:18.255Z,10.47
2023-12-11T15:27:46.711Z,6.83
2023-12-11T15:30:15.365Z,6.33
2023-12-11T15:32:48.308Z,5.00
2023-12-11T15:35:18.900Z,6.13
2023-12-11T15:37:47.360Z,7.47
2023-12-11T15:40:15.662Z,7.10
2023-12-11T15:42:44.501Z,8.67
2023-12-11T15:45:12.959Z,8.90
2023-12-11T15:48:00.305Z,6.47
2023-12-11T15:50:31.323Z,5.77
2023-12-11T15:53:00.622Z,9.80
2023-12-11T15:55:29.062Z,8.80
2023-12-11T15:57:57.581Z,10.60
2023-12-11T16:00:25.932Z,6.17
2023-12-11T16:02:54.268Z,10.83
2023-12-11T16:05:22.582Z,8.20
2023-12-11T16:07:52.643Z,9.03
2023-12-11T16:10:22.347Z,8.57
2023-12-11T16:12:50.835Z,8.80
2023-12-11T16:15:19.622Z,8.87
2023-12-11T16:17:48.399Z,6.80
2023-12-11T16:20:17.128Z,9.20
2023-12-11T16:22:45.552Z,5.83
2023-12-11T16:25:15.452Z,5.33
2023-12-11T16:27:43.768Z,9.03
2023-12-11T16:30:15.717Z,6.13
2023-12-11T16:32:44.446Z,6.63
2023-12-11T16:35:12.761Z,8.60
2023-12-11T16:37:41.175Z,9.53
2023-12-11T16:40:10.105Z,8.47
2023-12-11T16:42:39.841Z,7.90
2023-12-11T16:45:12.469Z,8.93
2023-12-11T16:47:44.993Z,9.50
2023-12-11T16:50:13.591Z,10.33
2023-12-11T16:52:42.082Z,7.17
2023-12-11T16:55:10.414Z,13.63
2023-12-11T16:57:40.313Z,9.37
2023-12-11T17:00:11.081Z,8.80
2023-12-11T17:02:39.627Z,7.63
2023-12-11T17:05:08.507Z,9.23
2023-12-11T17:07:36.801Z,9.50
2023-12-11T17:10:05.384Z,10.30
2023-12-11T17:12:36.988Z,12.50
2023-12-11T17:15:07.368Z,8.53
2023-12-11T17:17:35.656Z,10.00
2023-12-11T17:20:07.711Z,9.53
2023-12-11T17:22:36.364Z,9.13
2023-12-11T17:25:05.381Z,11.20
2023-12-11T17:27:34.422Z,6.33
2023-12-11T17:30:04.201Z,13.97
2023-12-11T17:32:34.444Z,12.30
2023-12-11T17:35:05.676Z,10.50
2023-12-11T17:37:34.113Z,8.57
2023-12-11T17:40:02.594Z,8.20
2023-12-11T17:42:32.044Z,9.93
2023-12-11T17:45:01.936Z,13.77
2023-12-11T17:47:30.349Z,9.53
2023-12-11T17:50:00.042Z,9.27
2023-12-11T17:52:28.502Z,10.10
2023-12-11T17:54:57.035Z,10.17
2023-12-11T17:57:28.234Z,9.43
2023-12-11T17:59:56.860Z,11.57
2023-12-11T18:02:25.213Z,9.67
2023-12-11T18:04:53.958Z,10.37
2023-12-11T18:07:26.734Z,8.17
2023-12-11T18:09:55.259Z,9.40
2023-12-11T18:12:23.669Z,12.57
2023-12-11T18:14:52.673Z,10.70
2023-12-11T18:17:21.439Z,9.27
2023-12-11T18:19:49.813Z,13.83
2023-12-11T18:22:18.197Z,8.97
2023-12-11T18:24:47.984Z,10.77
2023-12-11T18:27:16.323Z,8.97
2023-12-11T18:29:44.593Z,9.57
2023-12-11T18:32:13.138Z,8.33
2023-12-11T18:34:47.830Z,8.63
2023-12-11T18:37:22.659Z,8.63
2023-12-11T18:39:52.795Z,9.37
2023-12-11T18:42:21.147Z,6.70
2023-12-11T18:44:49.437Z,6.53
2023-12-11T18:47:17.786Z,7.33
2023-12-11T18:49:46.494Z,7.17
2023-12-11T18:52:16.864Z,7.97
2023-12-11T18:54:45.401Z,10.63
2023-12-11T18:57:15.521Z,9.70
2023-12-11T18:59:44.391Z,14.20
2023-12-11T19:02:13.842Z,9.50
2023-12-11T19:04:42.651Z,9.37
2023-12-11T19:07:11.080Z,8.27
2023-12-11T19:09:39.407Z,8.50
2023-12-11T19:12:08.060Z,8.47
2023-12-11T19:14:38.132Z,7.47
2023-12-11T19:17:07.056Z,9.63
2023-12-11T19:19:35.612Z,8.37
2023-12-11T19:22:03.960Z,9.40
2023-12-11T19:24:33.000Z,11.47
2023-12-11T19:27:01.434Z,7.03
2023-12-11T19:29:29.729Z,10.27
2023-12-11T19:31:59.501Z,8.00
2023-12-11T19:34:28.062Z,10.27
2023-12-11T19:36:56.372Z,10.63
2023-12-11T19:39:24.793Z,11.57
2023-12-11T19:41:54.307Z,8.90
2023-12-11T19:44:22.631Z,10.60
2023-12-11T19:46:52.662Z,6.90
2023-12-11T19:49:23.131Z,9.00
2023-12-11T19:51:51.792Z,9.37
2023-12-11T19:54:20.126Z,10.10
2023-12-11T19:56:48.509Z,14.80
2023-12-11T19:59:17.133Z,11.67
2023-12-11T20:01:45.467Z,13.80
2023-12-11T20:04:13.914Z,11.00
2023-12-11T20:06:43.582Z,7.97
2023-12-11T20:09:14.175Z,11.87
2023-12-11T20:11:42.492Z,17.37
2023-12-11T20:14:10.813Z,14.97
2023-12-11T20:16:39.118Z,10.00
2023-12-11T20:19:10.486Z,12.90
2023-12-11T20:21:40.472Z,13.47
2023-12-11T20:24:10.500Z,15.30
2023-12-11T20:26:38.870Z,13.07
2023-12-11T20:29:07.208Z,16.43
2023-12-11T20:31:35.713Z,14.83
2023-12-11T20:34:04.306Z,13.07
2023-12-11T20:36:32.693Z,14.57
2023-12-11T20:39:01.052Z,14.07
2023-12-11T20:41:32.551Z,14.57
2023-12-11T20:44:00.866Z,13.70
2023-12-11T20:46:29.153Z,13.63
2023-12-11T20:48:58.071Z,13.40
2023-12-11T20:51:28.049Z,9.27
2023-12-11T20:53:56.371Z,12.33
2023-12-11T20:56:25.238Z,12.20
2023-12-11T20:58:55.880Z,9.10
2023-12-11T21:01:30.654Z,12.37
2023-12-11T21:03:59.560Z,11.80
2023-12-11T21:06:28.808Z,8.33
2023-12-11T21:08:57.221Z,10.83
2023-12-11T21:11:26.222Z,10.07
2023-12-11T21:13:56.007Z,12.23
2023-12-11T21:16:24.405Z,11.17
2023-12-11T21:18:52.976Z,10.07
2023-12-11T21:21:21.977Z,9.50
2023-12-11T21:23:50.974Z,8.37
2023-12-11T21:26:20.089Z,10.53
2023-12-11T21:28:48.821Z,11.60
2023-12-11T21:31:22.743Z,10.77
2023-12-11T21:33:52.392Z,11.00
2023-12-11T21:36:24.573Z,13.00
2023-12-11T21:38:53.036Z,12.90
2023-12-11T21:41:21.427Z,11.20
2023-12-11T21:43:50.509Z,8.87
2023-12-11T21:46:19.237Z,9.40
2023-12-11T21:48:49.871Z,11.10
2023-12-11T21:51:19.092Z,12.17
2023-12-11T21:53:47.793Z,8.87
2023-12-11T21:56:16.190Z,8.93
2023-12-11T21:58:44.759Z,7.97
2023-12-11T22:01:13.583Z,13.10
2023-12-11T22:03:41.959Z,9.83
2023-12-11T22:06:14.405Z,13.93
2023-12-11T22:08:42.749Z,11.43
2023-12-11T22:11:14.744Z,12.27
2023-12-11T22:13:46.103Z,10.60
2023-12-11T22:16:16.267Z,9.80
2023-12-11T22:18:45.264Z,12.93
2023-12-11T22:21:22.679Z,13.20
2023-12-11T22:23:50.936Z,13.60
2023-12-11T22:26:19.201Z,11.17
2023-12-11T22:28:48.152Z,10.07
2023-12-11T22:31:19.855Z,11.40
2023-12-11T22:33:48.203Z,12.13
2023-12-11T22:36:23.616Z,6.70
2023-12-11T22:38:51.866Z,9.47
2023-12-11T22:41:25.419Z,9.10
2023-12-11T22:43:53.723Z,9.87
2023-12-11T22:46:22.010Z,17.77
2023-12-11T22:48:50.524Z,9.57
2023-12-11T22:51:18.914Z,11.40
2023-12-11T22:53:49.029Z,8.10
2023-12-11T22:56:17.278Z,11.33
2023-12-11T22:58:47.663Z,11.00
2023-12-11T23:01:16.066Z,12.53
2023-12-11T23:03:44.853Z,12.13
2023-12-11T23:06:14.093Z,10.63
2023-12-11T23:08:42.491Z,10.33
2023-12-11T23:11:12.521Z,11.27
2023-12-11T23:13:40.885Z,7.93
2023-12-11T23:16:09.816Z,14.37
2023-12-11T23:18:38.592Z,9.87
2023-12-11T23:21:07.136Z,16.77
2023-12-11T23:23:35.400Z,9.53
2023-12-11T23:26:07.888Z,13.57
2023-12-11T23:28:37.587Z,15.27
2023-12-11T23:31:06.159Z,13.27
2023-12-11T23:33:35.130Z,14.47
2023-12-11T23:36:03.534Z,10.63
2023-12-11T23:38:31.794Z,12.83
2023-12-11T23:41:01.305Z,17.50
2023-12-11T23:43:29.654Z,9.53
2023-12-11T23:45:59.634Z,14.07
2023-12-11T23:48:28.252Z,14.90
2023-12-11T23:50:56.799Z,14.83
2023-12-11T23:53:25.078Z,15.83
2023-12-11T23:55:53.335Z,10.63
2023-12-11T23:58:22.755Z,13.23
